Time;durP1;ratioP1;P1;durP2;ratioP2;P2;SDS_P1;SDS_P2;PMS_P1;PMS_P2;Temp;Humidity;BMP_temperature;BMP_pressure;BME280_temperature;BME280_humidity;BME280_pressure;Samples;Min_cycle;Max_cycle;Signal;HPM_P1;HPM_P2
2022/05/23 00:01:01;;;;;;;1.70;1.50;;;;;;;11.38;65.43;95222.04;1679946;85;21557;-65
2022/05/23 00:03:31;;;;;;;1.67;1.57;;;;;;;11.34;64.58;95215.09;1679988;85;21062;-66
2022/05/23 00:05:59;;;;;;;1.37;1.27;;;;;;;11.38;65.18;95219.40;1680164;85;21059;-66
2022/05/23 00:08:26;;;;;;;3.60;1.50;;;;;;;11.31;66.26;95217.38;1679724;85;21561;-65
2022/05/23 00:10:54;;;;;;;1.30;1.20;;;;;;;11.24;67.60;95221.11;1679983;85;21022;-65
2022/05/23 00:13:20;;;;;;;1.93;1.50;;;;;;;11.24;67.02;95215.37;1679493;85;21063;-66
2022/05/23 00:15:46;;;;;;;3.53;1.60;;;;;;;11.24;65.43;95215.37;1679998;85;21035;-66
2022/05/23 00:18:13;;;;;;;2.93;2.13;;;;;;;11.31;66.92;95219.16;1679594;85;21576;-66
2022/05/23 00:20:40;;;;;;;2.47;1.80;;;;;;;11.36;67.76;95219.43;1680150;85;21051;-66
2022/05/23 00:23:07;;;;;;;3.80;1.60;;;;;;;11.43;67.95;95230.24;1679809;85;21075;-66
2022/05/23 00:25:34;;;;;;;3.77;1.50;;;;;;;11.50;67.77;95224.80;1680059;85;21003;-66
2022/05/23 00:28:01;;;;;;;1.87;1.60;;;;;;;11.49;67.55;95221.30;1679971;85;21090;-66
2022/05/23 00:30:28;;;;;;;2.10;1.30;;;;;;;11.54;67.63;95223.36;1679758;85;21477;-66
2022/05/23 00:35:45;;;;;;;1.80;1.20;;;;;;;11.52;67.38;95233.10;1680014;85;21075;-66
2022/05/23 00:38:12;;;;;;;4.07;1.47;;;;;;;11.52;67.54;95233.56;1682091;85;21122;-66
2022/05/23 00:43:43;;;;;;;5.35;1.40;;;;;;;11.66;68.34;95229.59;1682466;85;21035;-66
2022/05/23 00:46:12;;;;;;;2.10;1.70;;;;;;;11.69;67.42;95225.99;1682460;85;21078;-66
2022/05/23 00:48:39;;;;;;;2.80;1.50;;;;;;;11.73;67.14;95236.90;1682325;85;21114;-66
2022/05/23 00:51:13;;;;;;;4.87;1.80;;;;;;;11.76;67.01;95228.02;1682615;85;21055;-66
2022/05/23 00:53:48;;;;;;;2.97;1.80;;;;;;;11.68;67.04;95231.73;1653591;85;21043;-66
2022/05/23 00:56:18;;;;;;;2.62;1.90;;;;;;;11.70;68.11;95225.96;1683250;85;21027;-66
2022/05/23 00:58:55;;;;;;;2.70;1.60;;;;;;;11.69;67.51;95228.20;1682106;85;21039;-66
2022/05/23 01:01:26;;;;;;;2.93;1.63;;;;;;;11.73;67.52;95234.25;1682792;85;21007;-66
2022/05/23 01:03:53;;;;;;;7.07;2.30;;;;;;;11.63;67.65;95228.83;1682855;85;21043;-66
2022/05/23 01:06:20;;;;;;;4.83;1.93;;;;;;;11.63;68.11;95232.33;1682665;85;21042;-66
2022/05/23 01:08:52;;;;;;;4.30;1.73;;;;;;;11.61;68.36;95240.75;1682814;85;21050;-66
2022/05/23 01:11:19;;;;;;;2.63;1.50;;;;;;;11.61;68.20;95229.31;1682846;85;21010;-66
2022/05/23 01:13:46;;;;;;;2.23;1.30;;;;;;;11.56;68.14;95214.91;1682693;85;21470;-66
2022/05/23 01:16:13;;;;;;;2.05;1.60;;;;;;;11.49;69.77;95218.66;1682488;85;21015;-66
2022/05/23 01:18:41;;;;;;;2.87;1.57;;;;;;;11.47;68.93;95220.47;1682361;85;21071;-66
2022/05/23 01:21:13;;;;;;;1.60;1.50;;;;;;;11.41;69.35;95214.02;1682418;85;21074;-66
2022/05/23 01:23:54;;;;;;;2.80;1.80;;;;;;;11.39;69.49;95218.48;1682758;85;21015;-66
2022/05/23 01:26:23;;;;;;;2.10;1.70;;;;;;;11.33;68.16;95218.66;1683127;85;21023;-66
2022/05/23 01:28:51;;;;;;;2.97;1.73;;;;;;;11.33;68.45;95216.88;1681550;85;21031;-66
2022/05/23 01:31:28;;;;;;;2.27;1.77;;;;;;;11.31;68.51;95220.47;1661095;85;21561;-66
2022/05/23 01:33:57;;;;;;;3.17;1.50;;;;;;;11.31;69.58;95215.19;1682886;85;21035;-66
2022/05/23 01:36:24;;;;;;;3.50;1.90;;;;;;;11.28;69.02;95225.84;1682397;85;21098;-66
2022/05/23 01:38:51;;;;;;;3.20;1.73;;;;;;;11.27;70.27;95221.02;1679847;84;21082;-66
2022/05/23 01:41:20;;;;;;;1.40;1.30;;;;;;;11.23;69.21;95218.91;1679533;85;21161;-66
2022/05/23 01:43:48;;;;;;;1.62;1.20;;;;;;;11.21;69.90;95223.81;1680034;85;21003;-66
2022/05/23 01:46:31;;;;;;;4.55;1.90;;;;;;;11.22;70.10;95219.82;1680109;85;21066;-66
2022/05/23 01:49:05;;;;;;;1.80;1.50;;;;;;;11.30;69.74;95222.25;1674480;85;21516;-67
2022/05/23 01:51:32;;;;;;;3.70;1.30;;;;;;;11.31;69.58;95221.80;1680116;85;21059;-66
2022/05/23 01:53:58;;;;;;;4.10;1.50;;;;;;;11.30;70.40;95213.47;1679912;85;21494;-66
2022/05/23 01:56:25;;;;;;;1.97;1.50;;;;;;;11.31;69.36;95210.77;1679890;85;21063;-66
2022/05/23 02:01:39;;;;;;;1.40;1.30;;;;;;;11.32;69.88;95213.84;1680089;85;21042;-66
2022/05/23 02:04:06;;;;;;;4.13;1.87;;;;;;;11.40;69.98;95216.27;1680046;85;21079;-66
2022/05/23 02:06:34;;;;;;;2.43;1.10;;;;;;;11.39;70.47;95222.02;1678768;85;21085;-66
2022/05/23 02:09:04;;;;;;;1.93;1.00;;;;;;;11.36;69.54;95218.11;1680114;85;21035;-66
2022/05/23 02:11:33;;;;;;;8.77;1.20;;;;;;;11.36;69.60;95221.21;1679995;85;21079;-66
2022/05/23 02:13:59;;;;;;;2.17;1.27;;;;;;;11.31;70.02;95218.69;1680075;85;21007;-66
2022/05/23 02:16:28;;;;;;;3.03;1.40;;;;;;;11.32;70.06;95218.27;1678777;85;21059;-66
2022/05/23 02:18:59;;;;;;;2.03;1.47;;;;;;;11.33;70.04;95223.94;1679415;85;21043;-66
2022/05/23 02:21:26;;;;;;;3.50;1.50;;;;;;;11.36;69.34;95226.49;1680095;85;20995;-66
2022/05/23 02:23:54;;;;;;;3.03;1.60;;;;;;;11.38;69.57;95222.91;1680076;85;20995;-66
2022/05/23 02:26:21;;;;;;;1.80;1.63;;;;;;;11.39;68.53;95229.05;1679856;85;21103;-66
2022/05/23 02:28:47;;;;;;;3.13;1.50;;;;;;;11.34;69.24;95227.88;1679961;85;21031;-66
2022/05/23 02:31:15;;;;;;;5.23;1.80;;;;;;;11.30;69.45;95226.22;1678359;85;20999;-66
2022/05/23 02:33:44;;;;;;;2.40;1.60;;;;;;;11.33;67.39;95230.55;1679821;85;21059;-66
2022/05/23 02:36:21;;;;;;;1.63;1.50;;;;;;;11.31;67.90;95225.75;1679912;85;21565;-66
2022/05/23 02:38:48;;;;;;;2.07;1.40;;;;;;;11.24;67.65;95222.44;1682035;85;21066;-66
2022/05/23 02:41:15;;;;;;;2.73;1.33;;;;;;;11.22;67.25;95221.14;1682588;85;21038;-66
2022/05/23 02:43:42;;;;;;;3.07;1.20;;;;;;;11.19;67.04;95233.12;1682487;85;21079;-66
2022/05/23 02:46:11;;;;;;;4.03;1.40;;;;;;;11.12;67.87;95228.91;1682287;85;21063;-66
2022/05/23 02:48:37;;;;;;;1.30;1.20;;;;;;;11.09;68.21;95237.34;1682646;85;21043;-66
2022/05/23 02:51:05;;;;;;;1.53;1.30;;;;;;;11.07;68.03;95236.53;1682475;85;21086;-66
2022/05/23 02:53:32;;;;;;;2.90;1.27;;;;;;;11.03;67.80;95231.31;1682648;85;21536;-66
2022/05/23 02:55:59;;;;;;;3.70;1.40;;;;;;;11.09;68.10;95232.06;1682729;85;21058;-66
2022/05/23 02:58:26;;;;;;;2.43;1.33;;;;;;;11.09;67.61;95235.59;1682512;85;21521;-66
2022/05/23 03:00:53;;;;;;;1.17;1.07;;;;;;;11.06;66.92;95231.69;1682098;85;21086;-67
2022/05/23 03:03:20;;;;;;;1.13;1.03;;;;;;;11.02;67.13;95228.73;1682676;85;21071;-67
2022/05/23 03:05:53;;;;;;;2.23;1.10;;;;;;;10.97;66.96;95228.84;1682322;85;21070;-66
2022/05/23 03:08:24;;;;;;;2.00;1.23;;;;;;;11.01;66.53;95227.88;1682758;85;21047;-66
2022/05/23 03:10:55;;;;;;;2.27;1.40;;;;;;;11.05;66.47;95233.47;1682565;85;21030;-66
2022/05/23 03:13:23;;;;;;;1.80;1.00;;;;;;;11.09;66.21;95233.38;1682809;85;21014;-66
2022/05/23 03:15:50;;;;;;;1.40;1.30;;;;;;;11.10;66.88;95232.03;1682349;85;21117;-66
2022/05/23 03:18:17;;;;;;;1.30;0.93;;;;;;;11.09;66.44;95232.95;1682555;85;21027;-66
2022/05/23 03:20:44;;;;;;;2.10;1.30;;;;;;;11.11;66.36;95235.53;1682588;85;21071;-66
2022/05/23 03:28:44;;;;;;;1.20;1.10;;;;;;;11.05;67.99;95228.19;1682739;85;21047;-66
2022/05/23 03:31:11;;;;;;;2.13;1.30;;;;;;;11.03;68.23;95227.35;1682554;85;21513;-66
2022/05/23 03:33:37;;;;;;;1.60;1.40;;;;;;;11.00;68.79;95222.16;1682199;85;21568;-66
2022/05/23 03:36:05;;;;;;;3.77;1.37;;;;;;;11.02;68.64;95222.13;1682726;85;21046;-66
2022/05/23 03:38:31;;;;;;;3.10;1.47;;;;;;;11.03;69.49;95215.47;1681035;84;21564;-66
2022/05/23 03:41:07;;;;;;;1.43;1.00;;;;;;;11.05;68.62;95217.62;1654655;85;21051;-66
2022/05/23 03:43:34;;;;;;;4.73;1.30;;;;;;;11.06;69.07;95218.48;1679974;85;21035;-66
2022/05/23 03:46:06;;;;;;;1.97;1.00;;;;;;;11.14;68.67;95220.49;1679517;85;22102;-66
2022/05/23 03:48:33;;;;;;;2.27;1.20;;;;;;;11.23;68.10;95214.08;1679271;85;21099;-66
2022/05/23 03:51:01;;;;;;;4.30;1.50;;;;;;;11.38;67.97;95220.72;1679838;85;21537;-66
2022/05/23 03:53:30;;;;;;;3.63;1.23;;;;;;;11.48;67.35;95224.84;1679728;85;21003;-66
2022/05/23 03:55:59;;;;;;;4.90;1.37;;;;;;;11.61;67.03;95220.06;1680038;85;21110;-66
2022/05/23 03:58:28;;;;;;;3.87;1.40;;;;;;;11.73;64.33;95226.79;1679942;85;21039;-66
2022/05/23 04:01:11;;;;;;;8.47;1.60;;;;;;;11.78;63.61;95230.16;1679357;85;21063;-66
2022/05/23 04:03:38;;;;;;;4.13;1.73;;;;;;;11.77;63.21;95236.34;1679855;85;21054;-66
2022/05/23 04:06:05;;;;;;;2.85;1.80;;;;;;;11.75;63.38;95236.41;1679873;85;20996;-66
2022/05/23 04:08:35;;;;;;;6.27;2.07;;;;;;;11.77;63.68;95229.73;1679518;85;21537;-66
2022/05/23 04:11:03;;;;;;;8.10;2.47;;;;;;;11.77;63.76;95231.05;1679955;85;21054;-66
2022/05/23 04:13:31;;;;;;;11.30;2.30;;;;;;;11.79;64.05;95235.84;1679840;85;21094;-66
2022/05/23 04:15:58;;;;;;;6.30;1.60;;;;;;;11.79;64.43;95234.52;1676903;85;21054;-66
2022/05/23 04:18:25;;;;;;;8.13;1.97;;;;;;;11.81;64.10;95234.89;1679803;85;21083;-66
2022/05/23 04:20:52;;;;;;;4.45;2.02;;;;;;;11.82;64.87;95231.82;1676884;85;21562;-67
2022/05/23 04:23:21;;;;;;;3.43;1.97;;;;;;;11.93;64.29;95230.20;1679958;85;21051;-66
2022/05/23 04:25:49;;;;;;;3.03;2.30;;;;;;;12.05;64.50;95229.84;1679779;85;21090;-66
2022/05/23 04:28:18;;;;;;;4.47;2.05;;;;;;;12.16;63.74;95221.11;1679723;85;21083;-66
2022/05/23 04:30:45;;;;;;;7.40;2.25;;;;;;;12.26;62.57;95217.73;1677569;85;21062;-66
2022/05/23 04:35:59;;;;;;;7.47;2.05;;;;;;;12.35;62.14;95216.13;1679872;85;21035;-66
2022/05/23 04:38:28;;;;;;;13.80;2.20;;;;;;;12.39;62.14;95217.75;1680003;85;21509;-66
2022/05/23 04:40:56;;;;;;;5.80;1.82;;;;;;;12.40;61.76;95217.28;1681534;85;21524;-66
2022/05/23 04:43:24;;;;;;;3.60;2.10;;;;;;;12.45;62.02;95216.70;1656870;85;21540;-66
2022/05/23 04:45:51;;;;;;;6.62;2.10;;;;;;;12.49;62.02;95223.16;1681431;85;21055;-66
2022/05/23 04:51:22;;;;;;;6.15;2.12;;;;;;;12.53;60.97;95212.03;1681668;85;21019;-66
2022/05/23 04:53:53;;;;;;;3.77;1.70;;;;;;;12.49;60.85;95212.56;1681591;85;21489;-66
2022/05/23 04:56:22;;;;;;;11.22;1.80;;;;;;;12.52;61.06;95211.60;1681403;85;21038;-67
2022/05/23 04:58:50;;;;;;;2.87;1.60;;;;;;;12.59;60.63;95210.49;1681372;85;21031;-66
2022/05/23 05:01:18;;;;;;;4.00;1.70;;;;;;;12.61;59.99;95206.02;1681097;85;21055;-68
2022/05/23 05:03:45;;;;;;;4.90;1.57;;;;;;;12.62;59.99;95212.17;1681545;85;21027;-67
2022/05/23 05:06:12;;;;;;;4.45;1.62;;;;;;;12.67;60.08;95210.23;1681154;85;21079;-66
2022/05/23 05:08:39;;;;;;;6.72;1.65;;;;;;;12.72;60.12;95208.30;1679626;85;21126;-66
2022/05/23 05:11:06;;;;;;;6.37;1.57;;;;;;;12.78;60.08;95207.66;1679904;85;21201;-66
2022/05/23 05:13:35;;;;;;;2.27;1.87;;;;;;;12.85;60.17;95204.78;1680927;85;21051;-65
2022/05/23 05:16:07;;;;;;;3.27;1.42;;;;;;;12.90;59.50;95203.74;1655078;85;21648;-66
2022/05/23 05:18:36;;;;;;;3.67;1.45;;;;;;;12.94;59.20;95208.00;1680735;85;21086;-67
2022/05/23 05:21:10;;;;;;;2.98;1.37;;;;;;;13.03;58.96;95213.89;1681567;85;21007;-66
2022/05/23 05:23:55;;;;;;;3.52;1.50;;;;;;;13.04;59.05;95208.55;1681069;85;21036;-65
2022/05/23 05:26:25;;;;;;;3.95;1.55;;;;;;;13.08;59.37;95209.30;1679788;85;21051;-66
2022/05/23 05:28:52;;;;;;;5.70;1.47;;;;;;;13.15;58.99;95210.82;1681344;85;21525;-68
2022/05/23 05:31:47;;;;;;;5.03;1.60;;;;;;;13.24;59.23;95209.66;1680337;85;21027;-69
2022/05/23 05:34:24;;;;;;;4.40;1.20;;;;;;;13.31;59.32;95210.73;1679994;85;21031;-68
2022/05/23 05:36:55;;;;;;;3.30;1.45;;;;;;;13.40;59.23;95205.56;1679401;85;21249;-67
2022/05/23 05:39:26;;;;;;;3.70;1.30;;;;;;;13.48;58.19;95201.30;1680971;85;21098;-66
2022/05/23 05:42:09;;;;;;;5.60;1.50;;;;;;;13.57;58.88;95210.26;1682202;85;21511;-65
2022/05/23 05:44:42;;;;;;;4.75;1.37;;;;;;;13.66;58.63;95206.39;1681528;85;21078;-69
2022/05/23 05:47:14;;;;;;;5.47;1.47;;;;;;;13.75;58.41;95206.92;1682006;85;21069;-65
2022/05/23 05:49:44;;;;;;;3.67;1.50;;;;;;;13.84;58.69;95213.69;1652892;85;21101;-67
2022/05/23 05:52:14;;;;;;;4.17;1.80;;;;;;;13.93;57.67;95208.02;1681556;85;21088;-65
2022/05/23 05:54:42;;;;;;;4.00;1.45;;;;;;;13.99;58.00;95210.45;1681487;85;21537;-66
2022/05/23 05:57:12;;;;;;;3.62;1.50;;;;;;;14.07;57.17;95208.36;1681905;85;21130;-65
2022/05/23 05:59:40;;;;;;;4.28;1.42;;;;;;;14.14;56.46;95205.49;1675750;85;21141;-64
2022/05/23 06:02:08;;;;;;;4.22;1.30;;;;;;;14.16;55.63;95210.25;1682131;85;21118;-65
2022/05/23 06:04:36;;;;;;;2.42;1.15;;;;;;;14.22;55.83;95213.55;1681929;85;21098;-65
2022/05/23 06:12:54;;;;;;;1.90;1.20;;;;;;;14.37;55.17;95216.53;1681886;85;21573;-65
2022/05/23 06:15:23;;;;;;;2.45;1.40;;;;;;;14.49;55.90;95212.06;1680276;85;21572;-65
2022/05/23 06:17:51;;;;;;;2.95;1.42;;;;;;;14.59;54.25;95215.22;1681448;85;21094;-68
2022/05/23 06:20:22;;;;;;;4.97;1.50;;;;;;;14.63;54.81;95210.20;1681942;85;21046;-72
2022/05/23 06:22:51;;;;;;;2.47;1.20;;;;;;;14.69;54.34;95213.92;1682158;85;21122;-72
2022/05/23 06:25:18;;;;;;;3.45;1.55;;;;;;;14.76;53.51;95214.55;1681915;85;21071;-68
2022/05/23 06:27:46;;;;;;;3.65;1.72;;;;;;;14.77;53.88;95206.53;1682254;85;21115;-68
2022/05/23 06:30:17;;;;;;;3.55;1.40;;;;;;;14.87;53.71;95208.34;1681731;85;21074;-68
2022/05/23 06:33:03;;;;;;;3.77;1.22;;;;;;;14.94;52.74;95211.12;1681810;85;21028;-70
2022/05/23 06:35:32;;;;;;;1.90;0.95;;;;;;;15.00;51.83;95210.88;1682109;85;21166;-68
2022/05/23 06:37:58;;;;;;;1.50;1.30;;;;;;;15.03;50.66;95212.07;1681398;85;21086;-66
2022/05/23 06:40:30;;;;;;;1.95;1.20;;;;;;;15.10;52.09;95210.89;1627569;85;21074;-67
2022/05/23 06:43:15;;;;;;;5.22;1.00;;;;;;;15.22;51.54;95209.95;1682132;85;21081;-68
2022/05/23 06:45:47;;;;;;;1.55;0.90;;;;;;;15.25;49.20;95211.17;1660989;85;21031;-68
2022/05/23 06:48:34;;;;;;;2.25;1.00;;;;;;;15.30;49.22;95214.03;1682432;85;21078;-68
2022/05/23 06:51:03;;;;;;;2.25;0.90;;;;;;;15.40;49.17;95222.47;1680907;85;21058;-68
2022/05/23 06:53:34;;;;;;;2.05;1.17;;;;;;;15.51;49.69;95216.67;1682722;85;21469;-67
2022/05/23 06:56:03;;;;;;;4.08;1.10;;;;;;;15.61;49.45;95213.16;1681845;85;21071;-69
2022/05/23 06:58:30;;;;;;;5.25;1.10;;;;;;;15.68;49.05;95213.28;1681297;85;20987;-66
2022/05/23 07:00:57;;;;;;;2.33;1.00;;;;;;;15.77;48.19;95215.54;1681267;85;21660;-67
2022/05/23 07:03:31;;;;;;;2.83;1.10;;;;;;;15.92;49.40;95220.64;1677651;85;21050;-65
2022/05/23 07:14:16;;;;;;;2.27;0.70;;;;;;;16.38;45.92;95211.40;1680583;85;21086;-66
2022/05/23 07:16:44;;;;;;;1.75;1.07;;;;;;;16.48;47.24;95217.59;1681850;85;21098;-66
2022/05/23 07:19:12;;;;;;;3.55;0.95;;;;;;;16.54;46.21;95215.98;1682201;85;21023;-67
2022/05/23 07:21:43;;;;;;;1.67;0.85;;;;;;;16.61;46.25;95214.28;1680303;85;21081;-65
2022/05/23 07:24:11;;;;;;;1.50;0.80;;;;;;;16.67;43.83;95210.45;1681886;85;21043;-66
2022/05/23 07:26:43;;;;;;;0.60;0.60;;;;;;;16.78;43.47;95201.97;1682100;85;21151;-66
2022/05/23 07:29:11;;;;;;;1.40;0.70;;;;;;;16.78;43.47;95201.97;1681798;85;21086;-66
2022/05/23 07:31:38;;;;;;;1.17;0.62;;;;;;;16.85;43.32;95206.06;1681148;85;21229;-70
2022/05/23 07:34:05;;;;;;;2.02;0.98;;;;;;;16.82;41.54;95207.07;1680574;85;21185;-67
2022/05/23 07:36:32;;;;;;;3.00;1.02;;;;;;;16.83;41.41;95212.81;1682253;85;21540;-64
2022/05/23 07:39:01;;;;;;;4.35;0.70;;;;;;;16.80;41.88;95215.61;1682047;85;21078;-65
2022/05/23 07:41:30;;;;;;;2.50;1.00;;;;;;;16.79;41.83;95207.70;1677102;85;21536;-65
2022/05/23 07:43:58;;;;;;;3.30;0.75;;;;;;;16.85;42.81;95213.58;1653066;85;21126;-65
2022/05/23 07:46:25;;;;;;;1.00;0.70;;;;;;;16.66;40.53;95206.08;1675975;85;21075;-65
2022/05/23 07:48:53;;;;;;;1.72;0.80;;;;;;;16.77;42.44;95218.87;1681419;85;21118;-65
2022/05/23 07:51:23;;;;;;;2.02;0.70;;;;;;;16.91;42.07;95223.09;1682415;85;20999;-65
2022/05/23 08:02:12;;;;;;;4.58;0.75;;;;;;;17.34;40.85;95226.27;1682013;84;21095;-64
2022/05/23 08:04:43;;;;;;;2.40;0.70;;;;;;;17.58;41.44;95233.46;1682447;85;21046;-65
2022/05/23 08:07:10;;;;;;;3.70;0.72;;;;;;;17.58;41.44;95233.46;1675949;85;21015;-66
2022/05/23 08:09:39;;;;;;;1.15;0.80;;;;;;;17.69;41.32;95228.45;1682032;85;21091;-65
2022/05/23 08:12:11;;;;;;;1.42;0.60;;;;;;;17.81;40.87;95226.95;1681808;85;21133;-65
2022/05/23 08:14:38;;;;;;;3.55;0.70;;;;;;;17.98;40.20;95222.06;1681529;85;20984;-66
2022/05/23 08:17:08;;;;;;;0.80;0.78;;;;;;;17.98;40.20;95222.06;1679241;85;21062;-65
2022/05/23 08:19:39;;;;;;;1.37;0.70;;;;;;;18.04;39.68;95223.08;1681582;85;21038;-64
2022/05/23 08:22:19;;;;;;;0.53;0.53;;;;;;;18.05;38.57;95222.13;1680902;85;21054;-65
2022/05/23 08:24:50;;;;;;;0.80;0.70;;;;;;;18.02;38.16;95227.63;1681496;85;21049;-65
2022/05/23 08:27:17;;;;;;;1.17;0.70;;;;;;;18.00;39.86;95220.66;1682071;85;21039;-66
2022/05/23 08:29:46;;;;;;;2.42;1.15;;;;;;;18.12;40.00;95216.85;1682817;85;21047;-66
2022/05/23 08:32:17;;;;;;;1.62;0.90;;;;;;;18.24;39.45;95211.29;1685729;85;20969;-68
2022/05/23 08:34:48;;;;;;;1.05;0.82;;;;;;;18.23;38.86;95218.07;1679396;84;21603;-67
2022/05/23 08:37:15;;;;;;;2.10;0.80;;;;;;;18.27;38.46;95218.27;1680680;85;21045;-68
2022/05/23 08:39:42;;;;;;;2.10;0.90;;;;;;;18.46;39.42;95213.64;1679676;85;21033;-67
2022/05/23 08:42:55;;;;;;;1.85;0.70;;;;;;;18.56;38.51;95214.00;1680976;85;21061;-69
2022/05/23 08:45:31;;;;;;;1.42;0.80;;;;;;;18.52;38.00;95211.98;1679171;85;21546;-67
2022/05/23 08:48:30;;;;;;;1.17;0.68;;;;;;;18.72;38.37;95222.01;1681538;85;21088;-67
2022/05/23 08:51:18;;;;;;;2.58;0.70;;;;;;;18.82;37.72;95219.23;1681526;85;22112;-67
2022/05/23 08:53:58;;;;;;;3.02;0.75;;;;;;;18.85;36.63;95216.86;1654110;86;21099;-66
2022/05/23 08:56:50;;;;;;;2.27;1.02;;;;;;;18.86;39.12;95212.77;1654841;86;21574;-69
2022/05/23 08:59:33;;;;;;;4.97;1.17;;;;;;;19.06;37.46;95214.30;1654330;87;21094;-67
2022/05/23 09:02:06;;;;;;;1.75;0.90;;;;;;;19.17;36.92;95219.02;1654418;86;21028;-65
2022/05/23 09:04:52;;;;;;;3.00;0.70;;;;;;;19.18;37.47;95211.39;1654703;86;21036;-66
2022/05/23 09:07:41;;;;;;;1.07;0.98;;;;;;;19.37;37.98;95205.81;1649274;87;20985;-66
2022/05/23 09:10:15;;;;;;;1.10;0.80;;;;;;;19.50;37.73;95195.23;1649001;87;21001;-66
2022/05/23 09:12:42;;;;;;;3.20;0.80;;;;;;;19.58;38.78;95189.81;1654853;86;21102;-66
2022/05/23 09:15:09;;;;;;;3.20;0.80;;;;;;;19.65;36.17;95189.84;1654859;87;21060;-66
2022/05/23 09:17:40;;;;;;;5.47;0.80;;;;;;;19.61;36.84;95190.96;1655362;87;20980;-66
2022/05/23 09:20:15;;;;;;;1.77;1.00;;;;;;;19.75;36.13;95194.16;1654902;87;21124;-66
2022/05/23 09:22:48;;;;;;;2.00;1.17;;;;;;;19.73;35.71;95189.41;1654453;87;21056;-66
2022/05/23 09:25:25;;;;;;;2.45;0.90;;;;;;;19.59;35.28;95190.19;1655600;86;21055;-66
2022/05/23 09:27:57;;;;;;;3.58;0.93;;;;;;;19.21;35.92;95191.15;1655768;87;21099;-66
2022/05/23 09:30:26;;;;;;;2.67;0.80;;;;;;;19.05;36.35;95182.28;1654291;86;21093;-65
2022/05/23 09:33:03;;;;;;;3.52;1.70;;;;;;;19.10;36.03;95188.23;1655993;86;21028;-65
2022/05/23 09:35:47;;;;;;;1.90;1.15;;;;;;;19.22;37.57;95177.66;1655961;87;21009;-65
2022/05/23 09:38:28;;;;;;;2.65;0.80;;;;;;;19.58;38.81;95166.19;1655792;87;21048;-67
2022/05/23 09:40:57;;;;;;;3.05;0.90;;;;;;;19.85;36.16;95163.19;1666350;86;21554;-65
2022/05/23 09:49:21;;;;;;;3.45;0.90;;;;;;;20.32;36.31;95153.98;1631271;88;21016;-66
2022/05/23 09:51:55;;;;;;;0.85;0.80;;;;;;;20.24;34.16;95164.82;1604163;89;21115;-66
2022/05/23 09:54:35;;;;;;;0.88;0.88;;;;;;;20.34;35.60;95155.73;1650027;87;20997;-66
2022/05/23 09:57:27;;;;;;;2.20;1.00;;;;;;;20.38;35.89;95156.74;1631457;88;21125;-66
2022/05/23 10:00:08;;;;;;;2.12;0.95;;;;;;;20.50;35.01;95157.78;1630451;88;21063;-66
2022/05/23 10:03:02;;;;;;;1.30;0.80;;;;;;;20.55;34.57;95161.05;1602808;89;21664;-66
2022/05/23 10:05:42;;;;;;;3.95;0.93;;;;;;;20.62;33.28;95161.53;1604664;89;21107;-66
2022/05/23 10:08:32;;;;;;;2.33;0.98;;;;;;;20.48;32.70;95148.98;1603351;89;21167;-66
2022/05/23 10:11:29;;;;;;;1.87;1.27;;;;;;;20.45;34.67;95151.86;1630612;88;21533;-65
2022/05/23 10:14:01;;;;;;;1.87;0.80;;;;;;;20.66;35.04;95149.62;1604804;89;21113;-66
2022/05/23 10:16:47;;;;;;;2.25;0.90;;;;;;;20.86;35.67;95150.52;1654915;87;21143;-65
2022/05/23 10:19:34;;;;;;;1.95;0.90;;;;;;;20.93;34.65;95159.02;1656927;87;20973;-65
2022/05/23 10:22:19;;;;;;;1.17;0.80;;;;;;;20.93;36.33;95151.83;1661295;86;21028;-66
2022/05/23 10:25:00;;;;;;;3.92;1.10;;;;;;;21.38;38.35;95144.82;1661432;86;21044;-66
2022/05/23 10:27:51;;;;;;;4.37;1.10;;;;;;;21.46;36.80;95137.13;1649627;87;21511;-66
2022/05/23 10:30:21;;;;;;;1.42;0.90;;;;;;;21.37;33.68;95131.03;1631390;86;21107;-66
2022/05/23 10:32:57;;;;;;;5.30;1.10;;;;;;;21.36;34.14;95125.27;1649430;87;21005;-67
2022/05/23 10:35:32;;;;;;;2.10;1.15;;;;;;;21.67;34.86;95136.14;1631233;88;21526;-66
2022/05/23 10:43:41;;;;;;;;;;;;;;;22.13;32.91;95133.38;1624121;88;20994;-66
2022/05/23 10:46:08;;;;;;;3.05;1.10;;;;;;;22.16;32.46;95133.15;1620549;88;20190;-65
2022/05/23 10:49:21;;;;;;;4.37;0.90;;;;;;;22.11;32.55;95139.34;1621372;88;21009;-65
2022/05/23 10:52:23;;;;;;;3.25;0.90;;;;;;;22.25;32.51;95133.38;1621745;88;21091;-66
2022/05/23 10:55:13;;;;;;;1.90;0.80;;;;;;;22.07;31.92;95136.48;1621679;88;21576;-65
2022/05/23 10:57:45;;;;;;;3.85;0.93;;;;;;;22.04;32.30;95142.44;1621622;88;21033;-66
2022/05/23 11:00:22;;;;;;;2.20;0.95;;;;;;;22.17;31.64;95148.28;1621481;88;21571;-65
2022/05/23 11:03:32;;;;;;;3.92;0.98;;;;;;;22.12;33.43;95140.55;1621626;88;21052;-66
2022/05/23 11:06:19;;;;;;;2.05;1.05;;;;;;;22.43;31.91;95134.37;1621679;88;21094;-66
2022/05/23 11:09:20;;;;;;;2.98;1.00;;;;;;;22.61;31.47;95126.78;1621637;88;21001;-66
2022/05/23 11:12:07;;;;;;;1.67;0.90;;;;;;;22.59;30.29;95133.60;1621295;88;21057;-66
2022/05/23 11:15:04;;;;;;;1.95;0.80;;;;;;;22.49;29.56;95140.63;1619733;88;21185;-66
2022/05/23 11:17:39;;;;;;;1.92;0.95;;;;;;;22.39;30.36;95143.13;1621572;88;21088;-66
2022/05/23 11:20:26;;;;;;;3.20;0.90;;;;;;;22.63;31.95;95132.42;1615481;88;21049;-66
2022/05/23 11:23:15;;;;;;;1.60;0.90;;;;;;;22.76;32.17;95142.27;1621265;88;21064;-66
2022/05/23 11:25:47;;;;;;;1.05;0.93;;;;;;;22.44;31.14;95136.07;1621704;88;21053;-66
2022/05/23 11:33:41;;;;;;;2.25;0.80;;;;;;;22.76;31.89;95145.81;1621653;88;21093;-66
2022/05/23 11:34:34;;;;;;;1.72;0.90;;;;;;;22.94;31.14;95148.97;1620370;88;21002;-65
2022/05/23 11:37:42;;;;;;;1.75;1.00;;;;;;;23.08;31.07;95149.30;1621623;88;21076;-65
2022/05/23 11:40:06;;;;;;;5.62;0.90;;;;;;;23.07;29.06;95139.52;1620422;88;21492;-66
2022/05/23 11:43:00;;;;;;;2.35;1.12;;;;;;;23.06;30.21;95134.63;1621571;88;21541;-66
2022/05/23 11:48:45;;;;;;;2.40;1.12;;;;;;;23.51;31.00;95126.72;1621550;88;21068;-66
2022/05/23 11:51:30;;;;;;;2.50;1.22;;;;;;;23.66;29.65;95122.45;1621560;88;21526;-66
2022/05/23 11:54:11;;;;;;;1.57;0.82;;;;;;;23.07;29.67;95133.64;1621599;88;21535;-66
2022/05/23 11:56:48;;;;;;;2.92;1.30;;;;;;;23.19;30.45;95130.52;1621824;88;21080;-66
2022/05/23 11:59:28;;;;;;;1.87;1.00;;;;;;;23.89;30.21;95120.67;1621607;88;21009;-66
2022/05/23 12:02:13;;;;;;;1.20;0.98;;;;;;;24.49;29.91;95122.66;1621714;88;21033;-66
2022/05/23 12:04:57;;;;;;;6.28;1.10;;;;;;;24.43;27.44;95123.99;1649881;85;21033;-66
2022/05/23 12:07:41;;;;;;;5.08;1.10;;;;;;;24.92;28.74;95125.88;1680589;85;21089;-66
2022/05/23 12:10:29;;;;;;;1.25;1.10;;;;;;;24.97;26.74;95125.00;1680879;85;21029;-66
2022/05/23 12:13:33;;;;;;;2.70;0.90;;;;;;;24.97;27.26;95127.70;1680304;85;21033;-66
2022/05/23 12:16:27;;;;;;;1.90;0.90;;;;;;;24.39;28.04;95126.09;1680679;85;21040;-66
2022/05/23 12:19:14;;;;;;;2.20;0.90;;;;;;;25.16;26.84;95117.13;1609378;87;21616;-66
2022/05/23 12:21:45;;;;;;;2.00;1.25;;;;;;;25.81;26.91;95117.89;1651629;85;21558;-66
2022/05/23 12:24:31;;;;;;;2.70;1.00;;;;;;;25.95;26.20;95122.11;1680688;85;21575;-66
2022/05/23 12:27:02;;;;;;;0.80;0.80;;;;;;;25.68;25.70;95116.75;1680135;85;21073;-66
2022/05/23 12:29:37;;;;;;;3.20;1.30;;;;;;;25.36;25.99;95121.34;1680447;85;21057;-66
2022/05/23 12:32:26;;;;;;;2.58;1.10;;;;;;;25.51;25.76;95110.58;1680549;85;20989;-67
2022/05/23 12:34:56;;;;;;;3.92;1.10;;;;;;;26.01;26.53;95105.38;1680619;84;21041;-66
2022/05/23 12:37:38;;;;;;;4.35;1.30;;;;;;;26.43;25.73;95103.89;1680588;85;21061;-66
2022/05/23 12:40:22;;;;;;;4.45;1.00;;;;;;;27.17;25.87;95094.04;1680415;85;21010;-67
2022/05/23 12:43:31;;;;;;;1.67;1.12;;;;;;;27.49;23.69;95101.54;1680751;85;21041;-66
2022/05/23 12:46:26;;;;;;;2.55;1.00;;;;;;;27.59;23.86;95098.31;1680453;85;21086;-66
2022/05/23 12:49:01;;;;;;;2.08;0.90;;;;;;;27.93;24.59;95104.66;1680727;85;21009;-66
2022/05/23 12:52:16;;;;;;;1.32;0.88;;;;;;;27.82;24.15;95098.41;1680479;85;21022;-66
2022/05/23 12:55:17;;;;;;;2.83;1.00;;;;;;;28.03;24.04;95098.20;1680349;85;21053;-66
2022/05/23 12:58:18;;;;;;;2.35;0.90;;;;;;;28.05;22.42;95100.77;1675687;85;21085;-66
2022/05/23 13:00:55;;;;;;;1.32;0.95;;;;;;;28.22;22.55;95100.48;1680530;85;21045;-67
2022/05/23 13:03:28;;;;;;;2.35;0.72;;;;;;;28.35;23.11;95107.80;1680688;85;21537;-67
2022/05/23 13:06:16;;;;;;;1.52;0.80;;;;;;;28.35;22.00;95102.38;1680642;85;21104;-67